sensor_id;sensor_type;location;lat;lon;timestamp;P1;durP1;ratioP1;P2;durP2;ratioP2
72354;SDS011;60314;55.040;73.076;2022-10-20T00:00:59;9.25;;;3.92;;
72354;SDS011;60314;55.040;73.076;2022-10-20T00:03:27;5.78;;;3.42;;
72354;SDS011;60314;55.040;73.076;2022-10-20T00:05:54;6.18;;;3.80;;
72354;SDS011;60314;55.040;73.076;2022-10-20T00:08:30;7.05;;;3.90;;
72354;SDS011;60314;55.040;73.076;2022-10-20T00:10:56;6.00;;;3.90;;
72354;SDS011;60314;55.040;73.076;2022-10-20T00:13:28;6.82;;;3.88;;
72354;SDS011;60314;55.040;73.076;2022-10-20T00:15:55;5.97;;;3.90;;
72354;SDS011;60314;55.040;73.076;2022-10-20T00:18:23;7.15;;;3.70;;
72354;SDS011;60314;55.040;73.076;2022-10-20T00:21:03;6.22;;;3.85;;
72354;SDS011;60314;55.040;73.076;2022-10-20T00:23:36;5.72;;;3.63;;
72354;SDS011;60314;55.040;73.076;2022-10-20T00:26:04;8.52;;;3.80;;
72354;SDS011;60314;55.040;73.076;2022-10-20T00:28:33;5.78;;;3.72;;
72354;SDS011;60314;55.040;73.076;2022-10-20T00:31:00;11.85;;;4.30;;
72354;SDS011;60314;55.040;73.076;2022-10-20T00:33:28;7.25;;;3.67;;
72354;SDS011;60314;55.040;73.076;2022-10-20T00:35:57;7.55;;;3.83;;
72354;SDS011;60314;55.040;73.076;2022-10-20T00:38:25;7.05;;;3.60;;
72354;SDS011;60314;55.040;73.076;2022-10-20T00:40:51;7.07;;;3.55;;
72354;SDS011;60314;55.040;73.076;2022-10-20T00:43:18;7.07;;;3.72;;
72354;SDS011;60314;55.040;73.076;2022-10-20T00:45:51;8.27;;;4.47;;
72354;SDS011;60314;55.040;73.076;2022-10-20T00:48:31;6.10;;;4.05;;
72354;SDS011;60314;55.040;73.076;2022-10-20T00:50:58;10.13;;;4.47;;
72354;SDS011;60314;55.040;73.076;2022-10-20T00:53:34;9.13;;;5.03;;
72354;SDS011;60314;55.040;73.076;2022-10-20T00:56:01;8.55;;;4.85;;
72354;SDS011;60314;55.040;73.076;2022-10-20T00:58:34;8.63;;;5.57;;
72354;SDS011;60314;55.040;73.076;2022-10-20T01:01:10;13.60;;;5.75;;
72354;SDS011;60314;55.040;73.076;2022-10-20T01:03:45;7.20;;;5.05;;
72354;SDS011;60314;55.040;73.076;2022-10-20T01:06:14;8.25;;;4.70;;
72354;SDS011;60314;55.040;73.076;2022-10-20T01:08:51;9.75;;;4.65;;
72354;SDS011;60314;55.040;73.076;2022-10-20T01:14:29;10.32;;;4.95;;
72354;SDS011;60314;55.040;73.076;2022-10-20T01:17:19;9.93;;;4.40;;
72354;SDS011;60314;55.040;73.076;2022-10-20T01:20:02;7.00;;;4.38;;
72354;SDS011;60314;55.040;73.076;2022-10-20T01:28:37;8.95;;;4.63;;
72354;SDS011;60314;55.040;73.076;2022-10-20T01:31:14;9.10;;;4.40;;
72354;SDS011;60314;55.040;73.076;2022-10-20T01:34:23;8.00;;;4.38;;
72354;SDS011;60314;55.040;73.076;2022-10-20T01:39:53;7.22;;;4.40;;
72354;SDS011;60314;55.040;73.076;2022-10-20T01:42:25;6.95;;;4.25;;
72354;SDS011;60314;55.040;73.076;2022-10-20T01:44:55;7.45;;;4.63;;
72354;SDS011;60314;55.040;73.076;2022-10-20T01:47:25;8.23;;;4.97;;
72354;SDS011;60314;55.040;73.076;2022-10-20T01:49:57;9.38;;;4.50;;
72354;SDS011;60314;55.040;73.076;2022-10-20T01:52:24;7.55;;;4.25;;
72354;SDS011;60314;55.040;73.076;2022-10-20T01:54:55;8.05;;;4.70;;
72354;SDS011;60314;55.040;73.076;2022-10-20T02:00:23;7.55;;;4.80;;
72354;SDS011;60314;55.040;73.076;2022-10-20T02:08:42;7.38;;;4.68;;
72354;SDS011;60314;55.040;73.076;2022-10-20T02:11:19;9.50;;;4.72;;
72354;SDS011;60314;55.040;73.076;2022-10-20T02:13:51;7.47;;;4.72;;
72354;SDS011;60314;55.040;73.076;2022-10-20T02:16:44;8.32;;;5.22;;
72354;SDS011;60314;55.040;73.076;2022-10-20T02:19:20;8.35;;;4.50;;
72354;SDS011;60314;55.040;73.076;2022-10-20T02:21:50;6.88;;;4.30;;
72354;SDS011;60314;55.040;73.076;2022-10-20T02:24:18;8.38;;;4.03;;
72354;SDS011;60314;55.040;73.076;2022-10-20T02:26:48;6.82;;;4.40;;
72354;SDS011;60314;55.040;73.076;2022-10-20T02:29:18;6.55;;;3.97;;
72354;SDS011;60314;55.040;73.076;2022-10-20T02:31:47;7.78;;;4.13;;
72354;SDS011;60314;55.040;73.076;2022-10-20T02:34:14;7.18;;;4.20;;
72354;SDS011;60314;55.040;73.076;2022-10-20T02:36:41;7.88;;;4.20;;
72354;SDS011;60314;55.040;73.076;2022-10-20T02:39:09;6.70;;;4.03;;
72354;SDS011;60314;55.040;73.076;2022-10-20T02:41:36;8.27;;;4.32;;
72354;SDS011;60314;55.040;73.076;2022-10-20T02:44:03;7.15;;;4.30;;
72354;SDS011;60314;55.040;73.076;2022-10-20T02:46:29;7.72;;;4.38;;
72354;SDS011;60314;55.040;73.076;2022-10-20T02:48:56;7.93;;;4.30;;
72354;SDS011;60314;55.040;73.076;2022-10-20T02:51:23;5.90;;;3.83;;
72354;SDS011;60314;55.040;73.076;2022-10-20T02:53:54;6.15;;;3.83;;
72354;SDS011;60314;55.040;73.076;2022-10-20T02:56:21;5.95;;;4.20;;
72354;SDS011;60314;55.040;73.076;2022-10-20T02:58:48;7.28;;;4.20;;
72354;SDS011;60314;55.040;73.076;2022-10-20T03:01:14;7.65;;;4.35;;
72354;SDS011;60314;55.040;73.076;2022-10-20T03:03:44;6.30;;;4.20;;
72354;SDS011;60314;55.040;73.076;2022-10-20T03:06:12;8.35;;;3.92;;
72354;SDS011;60314;55.040;73.076;2022-10-20T03:08:48;5.70;;;3.58;;
72354;SDS011;60314;55.040;73.076;2022-10-20T03:11:15;6.57;;;4.13;;
72354;SDS011;60314;55.040;73.076;2022-10-20T03:13:41;6.57;;;3.90;;
72354;SDS011;60314;55.040;73.076;2022-10-20T03:16:08;6.18;;;3.83;;
72354;SDS011;60314;55.040;73.076;2022-10-20T03:18:35;5.97;;;3.78;;
72354;SDS011;60314;55.040;73.076;2022-10-20T03:21:03;7.57;;;4.07;;
72354;SDS011;60314;55.040;73.076;2022-10-20T03:23:29;8.18;;;4.30;;
72354;SDS011;60314;55.040;73.076;2022-10-20T03:26:02;6.45;;;3.67;;
72354;SDS011;60314;55.040;73.076;2022-10-20T03:28:40;6.72;;;4.35;;
72354;SDS011;60314;55.040;73.076;2022-10-20T03:31:06;5.88;;;4.03;;
72354;SDS011;60314;55.040;73.076;2022-10-20T03:33:34;8.55;;;4.43;;
72354;SDS011;60314;55.040;73.076;2022-10-20T03:36:01;6.75;;;4.38;;
72354;SDS011;60314;55.040;73.076;2022-10-20T03:38:29;7.15;;;4.13;;
72354;SDS011;60314;55.040;73.076;2022-10-20T03:40:56;6.15;;;4.00;;
72354;SDS011;60314;55.040;73.076;2022-10-20T03:43:22;9.80;;;4.40;;
72354;SDS011;60314;55.040;73.076;2022-10-20T03:45:49;8.00;;;4.70;;
72354;SDS011;60314;55.040;73.076;2022-10-20T03:48:15;8.10;;;4.80;;
72354;SDS011;60314;55.040;73.076;2022-10-20T03:50:46;9.00;;;6.00;;
72354;SDS011;60314;55.040;73.076;2022-10-20T03:53:12;10.55;;;6.75;;
72354;SDS011;60314;55.040;73.076;2022-10-20T03:55:39;10.07;;;6.13;;
72354;SDS011;60314;55.040;73.076;2022-10-20T03:58:14;8.50;;;5.95;;
72354;SDS011;60314;55.040;73.076;2022-10-20T04:00:41;8.70;;;5.35;;
72354;SDS011;60314;55.040;73.076;2022-10-20T04:03:07;8.48;;;4.45;;
72354;SDS011;60314;55.040;73.076;2022-10-20T04:05:34;6.93;;;4.65;;
72354;SDS011;60314;55.040;73.076;2022-10-20T04:08:00;7.35;;;4.45;;
72354;SDS011;60314;55.040;73.076;2022-10-20T04:10:29;6.78;;;3.80;;
72354;SDS011;60314;55.040;73.076;2022-10-20T04:12:59;5.93;;;3.53;;
72354;SDS011;60314;55.040;73.076;2022-10-20T04:15:27;7.23;;;4.07;;
72354;SDS011;60314;55.040;73.076;2022-10-20T04:17:54;5.55;;;3.85;;
72354;SDS011;60314;55.040;73.076;2022-10-20T04:20:20;6.07;;;3.55;;
72354;SDS011;60314;55.040;73.076;2022-10-20T04:22:47;6.13;;;3.83;;
72354;SDS011;60314;55.040;73.076;2022-10-20T04:25:13;5.47;;;3.58;;
72354;SDS011;60314;55.040;73.076;2022-10-20T04:27:48;6.07;;;4.07;;
72354;SDS011;60314;55.040;73.076;2022-10-20T04:30:19;7.53;;;3.88;;
72354;SDS011;60314;55.040;73.076;2022-10-20T04:32:46;6.13;;;3.70;;
72354;SDS011;60314;55.040;73.076;2022-10-20T04:35:12;10.52;;;4.28;;
72354;SDS011;60314;55.040;73.076;2022-10-20T04:37:39;8.02;;;4.80;;
72354;SDS011;60314;55.040;73.076;2022-10-20T04:40:05;7.50;;;4.38;;
72354;SDS011;60314;55.040;73.076;2022-10-20T04:42:35;7.85;;;5.40;;
72354;SDS011;60314;55.040;73.076;2022-10-20T04:45:01;8.07;;;4.75;;
72354;SDS011;60314;55.040;73.076;2022-10-20T04:47:31;7.80;;;5.25;;
72354;SDS011;60314;55.040;73.076;2022-10-20T04:49:59;9.43;;;5.50;;
72354;SDS011;60314;55.040;73.076;2022-10-20T04:52:27;9.50;;;5.57;;
72354;SDS011;60314;55.040;73.076;2022-10-20T04:54:56;7.80;;;5.53;;
72354;SDS011;60314;55.040;73.076;2022-10-20T04:57:22;8.25;;;5.75;;
72354;SDS011;60314;55.040;73.076;2022-10-20T04:59:49;9.45;;;5.53;;
72354;SDS011;60314;55.040;73.076;2022-10-20T05:02:15;9.40;;;5.80;;
72354;SDS011;60314;55.040;73.076;2022-10-20T05:04:48;8.93;;;5.38;;
72354;SDS011;60314;55.040;73.076;2022-10-20T05:07:14;10.77;;;6.72;;
72354;SDS011;60314;55.040;73.076;2022-10-20T05:09:41;10.55;;;6.28;;
72354;SDS011;60314;55.040;73.076;2022-10-20T05:12:08;9.05;;;5.82;;
72354;SDS011;60314;55.040;73.076;2022-10-20T05:14:35;8.30;;;5.70;;
72354;SDS011;60314;55.040;73.076;2022-10-20T05:17:01;11.50;;;6.18;;
72354;SDS011;60314;55.040;73.076;2022-10-20T05:19:28;8.55;;;5.60;;
72354;SDS011;60314;55.040;73.076;2022-10-20T05:21:54;9.00;;;5.40;;
72354;SDS011;60314;55.040;73.076;2022-10-20T05:24:21;8.27;;;5.45;;
72354;SDS011;60314;55.040;73.076;2022-10-20T05:26:48;7.30;;;5.20;;
72354;SDS011;60314;55.040;73.076;2022-10-20T05:29:15;7.43;;;4.80;;
72354;SDS011;60314;55.040;73.076;2022-10-20T05:31:42;8.85;;;5.20;;
72354;SDS011;60314;55.040;73.076;2022-10-20T05:34:09;7.22;;;4.68;;
72354;SDS011;60314;55.040;73.076;2022-10-20T05:36:36;7.03;;;4.85;;
72354;SDS011;60314;55.040;73.076;2022-10-20T05:39:03;7.57;;;4.70;;
72354;SDS011;60314;55.040;73.076;2022-10-20T05:41:31;8.63;;;4.78;;
72354;SDS011;60314;55.040;73.076;2022-10-20T05:43:59;6.43;;;4.68;;
72354;SDS011;60314;55.040;73.076;2022-10-20T05:46:29;8.05;;;4.63;;
72354;SDS011;60314;55.040;73.076;2022-10-20T05:48:58;6.18;;;3.75;;
72354;SDS011;60314;55.040;73.076;2022-10-20T05:51:30;5.90;;;3.67;;
72354;SDS011;60314;55.040;73.076;2022-10-20T05:54:01;6.32;;;4.65;;
72354;SDS011;60314;55.040;73.076;2022-10-20T05:56:29;7.38;;;4.00;;
72354;SDS011;60314;55.040;73.076;2022-10-20T05:58:57;7.88;;;4.18;;
72354;SDS011;60314;55.040;73.076;2022-10-20T06:01:25;6.10;;;4.20;;
72354;SDS011;60314;55.040;73.076;2022-10-20T06:03:57;5.90;;;4.30;;
72354;SDS011;60314;55.040;73.076;2022-10-20T06:06:25;5.22;;;3.58;;
72354;SDS011;60314;55.040;73.076;2022-10-20T06:08:54;5.65;;;3.55;;
72354;SDS011;60314;55.040;73.076;2022-10-20T06:11:27;7.82;;;4.00;;
72354;SDS011;60314;55.040;73.076;2022-10-20T06:13:55;6.50;;;4.20;;
72354;SDS011;60314;55.040;73.076;2022-10-20T06:16:22;5.15;;;3.20;;
72354;SDS011;60314;55.040;73.076;2022-10-20T06:18:51;4.78;;;3.53;;
72354;SDS011;60314;55.040;73.076;2022-10-20T06:21:22;6.93;;;3.67;;
72354;SDS011;60314;55.040;73.076;2022-10-20T06:23:54;5.28;;;3.47;;
72354;SDS011;60314;55.040;73.076;2022-10-20T06:26:22;6.18;;;3.08;;
72354;SDS011;60314;55.040;73.076;2022-10-20T06:28:50;4.97;;;3.30;;
72354;SDS011;60314;55.040;73.076;2022-10-20T06:31:20;4.53;;;2.88;;
72354;SDS011;60314;55.040;73.076;2022-10-20T06:33:58;5.18;;;2.78;;
72354;SDS011;60314;55.040;73.076;2022-10-20T06:36:25;4.43;;;3.10;;
72354;SDS011;60314;55.040;73.076;2022-10-20T06:38:53;5.75;;;3.08;;
72354;SDS011;60314;55.040;73.076;2022-10-20T06:41:21;5.63;;;3.35;;
72354;SDS011;60314;55.040;73.076;2022-10-20T06:43:49;6.05;;;2.97;;
72354;SDS011;60314;55.040;73.076;2022-10-20T06:46:28;6.82;;;3.08;;
72354;SDS011;60314;55.040;73.076;2022-10-20T06:48:58;4.75;;;2.90;;
72354;SDS011;60314;55.040;73.076;2022-10-20T06:51:26;5.53;;;3.20;;
72354;SDS011;60314;55.040;73.076;2022-10-20T06:53:52;4.55;;;2.85;;
72354;SDS011;60314;55.040;73.076;2022-10-20T06:56:19;5.18;;;3.47;;
72354;SDS011;60314;55.040;73.076;2022-10-20T06:58:49;5.57;;;3.10;;
72354;SDS011;60314;55.040;73.076;2022-10-20T07:01:19;5.63;;;3.30;;
72354;SDS011;60314;55.040;73.076;2022-10-20T07:06:23;5.53;;;2.67;;
72354;SDS011;60314;55.040;73.076;2022-10-20T07:08:57;5.63;;;2.95;;
72354;SDS011;60314;55.040;73.076;2022-10-20T07:11:26;5.38;;;3.17;;
72354;SDS011;60314;55.040;73.076;2022-10-20T07:13:54;6.63;;;3.28;;
72354;SDS011;60314;55.040;73.076;2022-10-20T07:16:21;4.97;;;2.92;;
72354;SDS011;60314;55.040;73.076;2022-10-20T07:18:49;6.93;;;3.05;;
72354;SDS011;60314;55.040;73.076;2022-10-20T07:21:26;5.30;;;2.88;;
72354;SDS011;60314;55.040;73.076;2022-10-20T07:23:54;4.50;;;2.83;;
72354;SDS011;60314;55.040;73.076;2022-10-20T07:26:27;4.43;;;2.60;;
72354;SDS011;60314;55.040;73.076;2022-10-20T07:28:56;4.50;;;2.58;;
72354;SDS011;60314;55.040;73.076;2022-10-20T07:33:52;4.60;;;2.45;;
72354;SDS011;60314;55.040;73.076;2022-10-20T07:36:20;4.72;;;2.70;;
72354;SDS011;60314;55.040;73.076;2022-10-20T07:38:52;4.00;;;2.28;;
72354;SDS011;60314;55.040;73.076;2022-10-20T07:41:19;4.10;;;2.63;;
72354;SDS011;60314;55.040;73.076;2022-10-20T07:43:46;5.32;;;2.70;;
72354;SDS011;60314;55.040;73.076;2022-10-20T07:46:13;4.32;;;2.30;;
72354;SDS011;60314;55.040;73.076;2022-10-20T07:48:40;4.20;;;2.45;;
72354;SDS011;60314;55.040;73.076;2022-10-20T07:51:23;4.07;;;2.60;;
72354;SDS011;60314;55.040;73.076;2022-10-20T07:56:30;4.13;;;2.40;;
72354;SDS011;60314;55.040;73.076;2022-10-20T07:59:02;3.65;;;2.28;;
72354;SDS011;60314;55.040;73.076;2022-10-20T08:01:29;4.30;;;2.90;;
72354;SDS011;60314;55.040;73.076;2022-10-20T08:03:56;4.80;;;2.70;;
72354;SDS011;60314;55.040;73.076;2022-10-20T08:06:23;5.45;;;2.80;;
72354;SDS011;60314;55.040;73.076;2022-10-20T08:08:50;4.72;;;2.67;;
72354;SDS011;60314;55.040;73.076;2022-10-20T08:11:17;4.88;;;3.05;;
72354;SDS011;60314;55.040;73.076;2022-10-20T08:13:44;4.47;;;2.80;;
72354;SDS011;60314;55.040;73.076;2022-10-20T08:16:11;6.55;;;3.70;;
72354;SDS011;60314;55.040;73.076;2022-10-20T08:18:38;8.43;;;3.72;;
72354;SDS011;60314;55.040;73.076;2022-10-20T08:21:12;6.22;;;3.03;;
72354;SDS011;60314;55.040;73.076;2022-10-20T08:23:41;4.65;;;2.85;;
72354;SDS011;60314;55.040;73.076;2022-10-20T08:26:09;5.40;;;3.35;;
72354;SDS011;60314;55.040;73.076;2022-10-20T08:28:45;5.90;;;3.22;;
72354;SDS011;60314;55.040;73.076;2022-10-20T08:31:12;5.63;;;3.10;;
72354;SDS011;60314;55.040;73.076;2022-10-20T08:33:39;5.63;;;2.60;;
72354;SDS011;60314;55.040;73.076;2022-10-20T08:36:15;6.10;;;3.92;;
72354;SDS011;60314;55.040;73.076;2022-10-20T08:38:42;5.10;;;3.20;;
72354;SDS011;60314;55.040;73.076;2022-10-20T08:41:20;5.57;;;2.30;;
72354;SDS011;60314;55.040;73.076;2022-10-20T08:43:50;6.43;;;2.40;;
72354;SDS011;60314;55.040;73.076;2022-10-20T08:46:29;3.88;;;2.35;;
72354;SDS011;60314;55.040;73.076;2022-10-20T08:48:58;4.15;;;2.42;;
72354;SDS011;60314;55.040;73.076;2022-10-20T08:51:26;5.55;;;2.60;;
72354;SDS011;60314;55.040;73.076;2022-10-20T08:53:58;4.18;;;2.38;;
72354;SDS011;60314;55.040;73.076;2022-10-20T08:56:27;4.25;;;2.55;;
72354;SDS011;60314;55.040;73.076;2022-10-20T08:58:56;4.13;;;2.50;;
72354;SDS011;60314;55.040;73.076;2022-10-20T09:01:24;4.25;;;2.70;;
72354;SDS011;60314;55.040;73.076;2022-10-20T09:06:47;5.25;;;2.70;;
72354;SDS011;60314;55.040;73.076;2022-10-20T09:09:19;3.97;;;2.42;;
72354;SDS011;60314;55.040;73.076;2022-10-20T09:11:47;4.35;;;2.50;;
72354;SDS011;60314;55.040;73.076;2022-10-20T09:14:14;4.00;;;2.38;;
72354;SDS011;60314;55.040;73.076;2022-10-20T09:16:52;4.45;;;2.53;;
72354;SDS011;60314;55.040;73.076;2022-10-20T09:19:19;4.65;;;2.70;;
72354;SDS011;60314;55.040;73.076;2022-10-20T09:21:50;4.25;;;2.60;;
72354;SDS011;60314;55.040;73.076;2022-10-20T09:26:47;5.50;;;3.40;;
72354;SDS011;60314;55.040;73.076;2022-10-20T09:29:16;5.00;;;3.05;;
72354;SDS011;60314;55.040;73.076;2022-10-20T09:34:20;5.80;;;3.63;;
72354;SDS011;60314;55.040;73.076;2022-10-20T09:36:50;5.88;;;3.80;;
72354;SDS011;60314;55.040;73.076;2022-10-20T09:39:22;5.57;;;3.42;;
72354;SDS011;60314;55.040;73.076;2022-10-20T09:42:09;6.30;;;3.90;;
72354;SDS011;60314;55.040;73.076;2022-10-20T09:44:53;5.90;;;3.60;;
72354;SDS011;60314;55.040;73.076;2022-10-20T09:47:27;12.63;;;4.47;;
72354;SDS011;60314;55.040;73.076;2022-10-20T09:50:00;5.80;;;3.63;;
72354;SDS011;60314;55.040;73.076;2022-10-20T09:52:31;5.82;;;3.50;;
72354;SDS011;60314;55.040;73.076;2022-10-20T09:55:26;6.95;;;4.20;;
72354;SDS011;60314;55.040;73.076;2022-10-20T09:57:55;5.50;;;3.70;;
72354;SDS011;60314;55.040;73.076;2022-10-20T10:00:32;5.75;;;3.28;;
72354;SDS011;60314;55.040;73.076;2022-10-20T10:03:18;5.80;;;4.00;;
72354;SDS011;60314;55.040;73.076;2022-10-20T10:05:50;7.45;;;4.28;;
72354;SDS011;60314;55.040;73.076;2022-10-20T10:08:19;8.07;;;4.65;;
72354;SDS011;60314;55.040;73.076;2022-10-20T10:11:03;6.43;;;3.72;;
72354;SDS011;60314;55.040;73.076;2022-10-20T10:13:40;6.00;;;3.72;;
72354;SDS011;60314;55.040;73.076;2022-10-20T10:16:10;6.78;;;4.10;;
72354;SDS011;60314;55.040;73.076;2022-10-20T10:18:52;6.30;;;4.00;;
72354;SDS011;60314;55.040;73.076;2022-10-20T10:21:21;8.25;;;4.10;;
72354;SDS011;60314;55.040;73.076;2022-10-20T10:23:55;8.13;;;3.90;;
72354;SDS011;60314;55.040;73.076;2022-10-20T10:26:46;7.75;;;4.40;;
72354;SDS011;60314;55.040;73.076;2022-10-20T10:34:36;7.72;;;4.38;;
72354;SDS011;60314;55.040;73.076;2022-10-20T10:37:09;8.93;;;5.15;;
72354;SDS011;60314;55.040;73.076;2022-10-20T10:39:38;8.07;;;4.72;;
72354;SDS011;60314;55.040;73.076;2022-10-20T10:44:58;7.63;;;4.13;;
72354;SDS011;60314;55.040;73.076;2022-10-20T10:50:47;11.45;;;5.53;;
72354;SDS011;60314;55.040;73.076;2022-10-20T10:53:26;9.52;;;5.00;;
72354;SDS011;60314;55.040;73.076;2022-10-20T11:10:30;6.40;;;3.85;;
72354;SDS011;60314;55.040;73.076;2022-10-20T11:15:57;9.27;;;4.40;;
72354;SDS011;60314;55.040;73.076;2022-10-20T11:21:17;7.85;;;4.82;;
72354;SDS011;60314;55.040;73.076;2022-10-20T11:26:55;8.07;;;5.32;;
72354;SDS011;60314;55.040;73.076;2022-10-20T11:29:35;8.73;;;5.20;;
72354;SDS011;60314;55.040;73.076;2022-10-20T11:32:23;10.10;;;4.85;;
72354;SDS011;60314;55.040;73.076;2022-10-20T11:37:59;8.18;;;5.20;;
72354;SDS011;60314;55.040;73.076;2022-10-20T11:40:38;10.93;;;6.00;;
72354;SDS011;60314;55.040;73.076;2022-10-20T11:43:22;8.70;;;5.38;;
72354;SDS011;60314;55.040;73.076;2022-10-20T11:45:59;8.75;;;5.70;;
72354;SDS011;60314;55.040;73.076;2022-10-20T11:48:43;8.80;;;5.63;;
72354;SDS011;60314;55.040;73.076;2022-10-20T11:59:19;9.35;;;5.82;;
72354;SDS011;60314;55.040;73.076;2022-10-20T12:14:24;13.82;;;7.40;;
72354;SDS011;60314;55.040;73.076;2022-10-20T12:17:03;11.60;;;7.53;;
72354;SDS011;60314;55.040;73.076;2022-10-20T12:19:36;12.35;;;7.45;;
72354;SDS011;60314;55.040;73.076;2022-10-20T12:22:05;12.30;;;7.40;;
72354;SDS011;60314;55.040;73.076;2022-10-20T12:27:18;11.18;;;7.25;;
72354;SDS011;60314;55.040;73.076;2022-10-20T12:32:51;10.27;;;7.18;;
72354;SDS011;60314;55.040;73.076;2022-10-20T12:35:26;10.10;;;6.75;;
72354;SDS011;60314;55.040;73.076;2022-10-20T12:37:55;12.88;;;7.95;;
72354;SDS011;60314;55.040;73.076;2022-10-20T12:40:45;11.40;;;6.88;;
72354;SDS011;60314;55.040;73.076;2022-10-20T12:43:28;12.40;;;7.47;;
72354;SDS011;60314;55.040;73.076;2022-10-20T12:46:19;13.70;;;7.10;;
72354;SDS011;60314;55.040;73.076;2022-10-20T12:48:53;12.55;;;6.95;;
72354;SDS011;60314;55.040;73.076;2022-10-20T12:51:49;10.60;;;6.63;;
72354;SDS011;60314;55.040;73.076;2022-10-20T12:56:57;19.00;;;12.43;;
72354;SDS011;60314;55.040;73.076;2022-10-20T13:12:52;38.97;;;21.20;;
72354;SDS011;60314;55.040;73.076;2022-10-20T13:20:56;33.58;;;18.83;;
72354;SDS011;60314;55.040;73.076;2022-10-20T13:26:09;48.05;;;24.80;;
72354;SDS011;60314;55.040;73.076;2022-10-20T13:28:48;37.97;;;22.92;;
72354;SDS011;60314;55.040;73.076;2022-10-20T13:34:02;56.53;;;32.53;;
72354;SDS011;60314;55.040;73.076;2022-10-20T13:36:48;67.13;;;34.42;;
72354;SDS011;60314;55.040;73.076;2022-10-20T13:42:47;49.97;;;23.63;;
72354;SDS011;60314;55.040;73.076;2022-10-20T13:48:17;14.93;;;8.23;;
72354;SDS011;60314;55.040;73.076;2022-10-20T13:51:13;14.57;;;8.05;;
72354;SDS011;60314;55.040;73.076;2022-10-20T13:53:47;19.08;;;10.13;;
72354;SDS011;60314;55.040;73.076;2022-10-20T13:59:02;16.33;;;10.68;;
72354;SDS011;60314;55.040;73.076;2022-10-20T14:01:32;14.93;;;9.05;;
72354;SDS011;60314;55.040;73.076;2022-10-20T14:04:13;11.77;;;6.95;;
72354;SDS011;60314;55.040;73.076;2022-10-20T14:06:48;11.20;;;6.97;;
72354;SDS011;60314;55.040;73.076;2022-10-20T14:09:19;10.93;;;6.85;;
72354;SDS011;60314;55.040;73.076;2022-10-20T14:11:51;14.00;;;8.07;;
72354;SDS011;60314;55.040;73.076;2022-10-20T14:14:29;13.73;;;7.57;;
72354;SDS011;60314;55.040;73.076;2022-10-20T14:16:57;16.63;;;7.90;;
72354;SDS011;60314;55.040;73.076;2022-10-20T14:19:34;13.18;;;7.25;;
72354;SDS011;60314;55.040;73.076;2022-10-20T14:22:23;12.18;;;7.60;;
72354;SDS011;60314;55.040;73.076;2022-10-20T14:24:55;12.13;;;6.60;;
72354;SDS011;60314;55.040;73.076;2022-10-20T14:27:27;12.43;;;6.60;;
72354;SDS011;60314;55.040;73.076;2022-10-20T14:29:56;12.10;;;6.07;;
72354;SDS011;60314;55.040;73.076;2022-10-20T14:32:24;9.60;;;5.75;;
72354;SDS011;60314;55.040;73.076;2022-10-20T14:35:10;11.20;;;6.30;;
72354;SDS011;60314;55.040;73.076;2022-10-20T14:37:43;11.30;;;5.95;;
72354;SDS011;60314;55.040;73.076;2022-10-20T14:43:06;9.65;;;5.88;;
72354;SDS011;60314;55.040;73.076;2022-10-20T14:45:37;9.35;;;5.60;;
72354;SDS011;60314;55.040;73.076;2022-10-20T14:48:04;10.02;;;5.28;;
72354;SDS011;60314;55.040;73.076;2022-10-20T14:50:33;9.93;;;5.55;;
72354;SDS011;60314;55.040;73.076;2022-10-20T14:55:58;7.85;;;4.90;;
72354;SDS011;60314;55.040;73.076;2022-10-20T14:58:32;8.43;;;5.43;;
72354;SDS011;60314;55.040;73.076;2022-10-20T15:04:31;10.38;;;5.75;;
72354;SDS011;60314;55.040;73.076;2022-10-20T15:09:37;17.77;;;8.65;;
72354;SDS011;60314;55.040;73.076;2022-10-20T15:12:39;17.58;;;9.18;;
72354;SDS011;60314;55.040;73.076;2022-10-20T15:15:05;14.27;;;7.70;;
72354;SDS011;60314;55.040;73.076;2022-10-20T15:17:47;13.07;;;7.03;;
72354;SDS011;60314;55.040;73.076;2022-10-20T15:20:37;11.07;;;6.45;;
72354;SDS011;60314;55.040;73.076;2022-10-20T15:25:52;11.20;;;5.82;;
72354;SDS011;60314;55.040;73.076;2022-10-20T15:31:24;11.45;;;5.63;;
72354;SDS011;60314;55.040;73.076;2022-10-20T15:33:53;10.48;;;5.85;;
72354;SDS011;60314;55.040;73.076;2022-10-20T15:36:21;9.00;;;5.32;;
72354;SDS011;60314;55.040;73.076;2022-10-20T15:38:53;10.05;;;5.15;;
72354;SDS011;60314;55.040;73.076;2022-10-20T15:41:28;10.32;;;5.68;;
72354;SDS011;60314;55.040;73.076;2022-10-20T15:44:17;11.00;;;5.78;;
72354;SDS011;60314;55.040;73.076;2022-10-20T15:46:47;11.65;;;6.60;;
72354;SDS011;60314;55.040;73.076;2022-10-20T15:49:15;12.23;;;6.28;;
72354;SDS011;60314;55.040;73.076;2022-10-20T15:51:42;10.43;;;5.53;;
72354;SDS011;60314;55.040;73.076;2022-10-20T15:54:14;11.73;;;6.35;;
72354;SDS011;60314;55.040;73.076;2022-10-20T15:56:42;12.07;;;6.35;;
72354;SDS011;60314;55.040;73.076;2022-10-20T15:59:09;12.02;;;6.95;;
72354;SDS011;60314;55.040;73.076;2022-10-20T16:01:36;13.73;;;6.78;;
72354;SDS011;60314;55.040;73.076;2022-10-20T16:04:17;8.73;;;4.78;;
72354;SDS011;60314;55.040;73.076;2022-10-20T16:06:51;11.15;;;5.38;;
72354;SDS011;60314;55.040;73.076;2022-10-20T16:09:19;8.95;;;5.53;;
72354;SDS011;60314;55.040;73.076;2022-10-20T16:11:56;9.25;;;5.25;;
72354;SDS011;60314;55.040;73.076;2022-10-20T16:14:23;8.57;;;4.90;;
72354;SDS011;60314;55.040;73.076;2022-10-20T16:16:49;7.72;;;4.53;;
72354;SDS011;60314;55.040;73.076;2022-10-20T16:19:26;8.30;;;4.90;;
72354;SDS011;60314;55.040;73.076;2022-10-20T16:21:52;8.68;;;4.97;;
72354;SDS011;60314;55.040;73.076;2022-10-20T16:24:24;12.15;;;4.63;;
72354;SDS011;60314;55.040;73.076;2022-10-20T16:26:50;9.05;;;5.20;;
72354;SDS011;60314;55.040;73.076;2022-10-20T16:29:23;8.65;;;5.20;;
72354;SDS011;60314;55.040;73.076;2022-10-20T16:31:49;9.73;;;5.32;;
72354;SDS011;60314;55.040;73.076;2022-10-20T16:34:16;9.45;;;5.07;;
72354;SDS011;60314;55.040;73.076;2022-10-20T16:36:42;9.13;;;5.20;;
72354;SDS011;60314;55.040;73.076;2022-10-20T16:39:14;10.32;;;5.28;;
72354;SDS011;60314;55.040;73.076;2022-10-20T16:41:42;9.25;;;5.35;;
72354;SDS011;60314;55.040;73.076;2022-10-20T16:44:08;10.48;;;5.28;;
72354;SDS011;60314;55.040;73.076;2022-10-20T16:46:35;8.55;;;5.40;;
72354;SDS011;60314;55.040;73.076;2022-10-20T16:49:02;8.50;;;4.95;;
72354;SDS011;60314;55.040;73.076;2022-10-20T16:51:39;10.57;;;5.35;;
72354;SDS011;60314;55.040;73.076;2022-10-20T16:54:16;10.90;;;5.90;;
72354;SDS011;60314;55.040;73.076;2022-10-20T16:56:42;11.00;;;5.85;;
72354;SDS011;60314;55.040;73.076;2022-10-20T16:59:10;9.27;;;5.80;;
72354;SDS011;60314;55.040;73.076;2022-10-20T17:01:37;9.27;;;5.38;;
72354;SDS011;60314;55.040;73.076;2022-10-20T17:04:04;10.77;;;6.07;;
72354;SDS011;60314;55.040;73.076;2022-10-20T17:06:30;12.30;;;5.70;;
72354;SDS011;60314;55.040;73.076;2022-10-20T17:08:57;11.90;;;6.28;;
72354;SDS011;60314;55.040;73.076;2022-10-20T17:11:25;12.77;;;5.97;;
72354;SDS011;60314;55.040;73.076;2022-10-20T17:13:55;8.57;;;5.38;;
72354;SDS011;60314;55.040;73.076;2022-10-20T17:16:24;10.82;;;5.88;;
72354;SDS011;60314;55.040;73.076;2022-10-20T17:18:52;9.73;;;5.88;;
72354;SDS011;60314;55.040;73.076;2022-10-20T17:21:19;10.25;;;5.82;;
72354;SDS011;60314;55.040;73.076;2022-10-20T17:23:46;10.68;;;5.82;;
72354;SDS011;60314;55.040;73.076;2022-10-20T17:26:14;10.40;;;5.38;;
72354;SDS011;60314;55.040;73.076;2022-10-20T17:28:45;10.40;;;5.80;;